Record high temperature 39.4°C Record low temperature -14.6°C Record high gust 68.5 km/h Record high average 47.2 km/h Record daily rain 55.3 mm Record low windchill -17.5°C Record high barometer 1045.0 hPa Record low barometer 970.0 hPa
Daily high pressure 1024.0 hPa Daily low pressure 1022.0 hPa Daily low windchill 2.1°C Daily high heat index 16.5°C Daily high gust speed 13.0 kmh ENE Daily high average speed 9.1 kmh SSE

This page is updated from recent data collected by a WMR200 weather station Use the Reload or Refresh facility on your browser to retrieve the latest data.

Status report of weather station: Bienvenue sur la Station Météo de Godarville



Weather report/warning/Metars

Alexandroupoli Airport , Greece (LGAL) 40-51N 025-55E 3M
Nov 15, 2018 - 06:20 AM EST / 2018.11.15 1120 UTC
Wind: from the NNE (020 degrees) at 13 MPH (11 KT):0
Visibility: greater than 7 mile(s):0
Sky conditions: mostly cloudy
Temperature: 55 F (13 C)
Dew Point: 39 F (4 C)
Relative Humidity: 54%
Pressure (altimeter): 30.15 in. Hg (1021 hPa)
ob: LGAL 151120Z 02011KT 9999 BKN035 13/04 Q1021
cycle: 11

Charleroi / Gosselies, Belgium (EBCI) 50-28N 004-27E 192M
Nov 15, 2018 - 06:20 AM EST / 2018.11.15 1120 UTC
Wind: from the SSE (160 degrees) at 7 MPH (6 KT) (direction variable):0
Visibility: greater than 7 mile(s):0
Temperature: 57 F (14 C)
Dew Point: 44 F (7 C)
Relative Humidity: 62%
Pressure (altimeter): 30.21 in. Hg (1023 hPa)
ob: EBCI 151120Z 16006KT 130V190 CAVOK 14/07 Q1023 NOSIG
cycle: 11

Bruxelles National, Belgium (EBBR) 50-54N 004-32E 58M
Nov 15, 2018 - 06:20 AM EST / 2018.11.15 1120 UTC
Wind: from the SE (130 degrees) at 5 MPH (4 KT) (direction variable):0
Visibility: greater than 7 mile(s):0
Temperature: 55 F (13 C)
Dew Point: 42 F (6 C)
Relative Humidity: 62%
Pressure (altimeter): 30.24 in. Hg (1024 hPa)
ob: EBBR 151120Z 13004KT 100V170 CAVOK 13/06 Q1024 NOSIG
cycle: 11

Koksijde, Belgium (EBFN) 51-05N 002-39E 9M
Nov 15, 2018 - 06:33 AM EST / 2018.11.15 1133 UTC
Wind: from the S (170 degrees) at 13 MPH (11 KT):0
Visibility: 2 mile(s):0
Sky conditions: partly cloudy
Weather: mist
Temperature: 46 F (8 C)
Dew Point: 42 F (6 C)
Relative Humidity: 87%
Pressure (altimeter): 30.21 in. Hg (1023 hPa)
ob: EBFN 151133Z AUTO 17011KT 3300 BR SCT005/// 08/06 Q1023 YLO
cycle: 11

Poznan, Poland (EPPO) 52-25N 016-50E 92M
Nov 15, 2018 - 06:30 AM EST / 2018.11.15 1130 UTC
Wind: from the SE (130 degrees) at 6 MPH (5 KT):0
Visibility: greater than 7 mile(s):0
Sky conditions: mostly cloudy
Temperature: 50 F (10 C)
Dew Point: 39 F (4 C)
Relative Humidity: 66%
Pressure (altimeter): 30.47 in. Hg (1032 hPa)
ob: EPPO 151130Z 13005KT 9999 BKN044 10/04 Q1032 R10/19//95 
cycle: 11



Coucher du Soleil:
16:58:34

Lever de Lune:
13:38:20 14/11/18

Coucher de Lune:
22:41:05 14/11/18

Premier Quartier 15 novembre 2018
Pleine Lune 23 novembre 2018
Dernier Quartier 30 novembre 2018
Nouvelle Lune 7 décembre 2018
Âge de lune : 6 jours,19 heures,12 minutes,44%
Les heures du jour possible étaient aujourd’hui 09:03